createdAt,value
2022-10-29T00:00:35.287Z,71.09
2022-10-29T00:02:57.706Z,72.27
2022-10-29T00:04:59.519Z,71.41
2022-10-29T00:07:01.348Z,71.62
2022-10-29T00:09:05.012Z,71.49
2022-10-29T00:11:09.552Z,71.51
2022-10-29T00:13:11.419Z,71.24
2022-10-29T00:15:13.824Z,71.46
2022-10-29T00:17:15.998Z,71.01
2022-10-29T00:19:17.856Z,71.15
2022-10-29T00:21:21.588Z,71.17
2022-10-29T00:23:23.524Z,71.35
2022-10-29T00:25:25.287Z,71.39
2022-10-29T00:27:27.483Z,71.46
2022-10-29T00:29:29.277Z,71.13
2022-10-29T00:31:31.460Z,71.50
2022-10-29T00:33:34.160Z,70.91
2022-10-29T00:35:35.999Z,71.23
2022-10-29T00:37:37.874Z,71.36
2022-10-29T00:39:40.076Z,70.59
2022-10-29T00:41:42.838Z,70.33
2022-10-29T00:43:49.429Z,70.08
2022-10-29T00:45:54.197Z,70.23
2022-10-29T00:47:56.229Z,70.55
2022-10-29T00:50:03.966Z,70.60
2022-10-29T00:52:07.707Z,70.99
2022-10-29T00:54:12.219Z,71.01
2022-10-29T00:56:14.758Z,70.66
2022-10-29T00:58:17.744Z,70.54
2022-10-29T01:00:21.137Z,70.57
2022-10-29T01:02:24.479Z,70.44
2022-10-29T01:04:27.495Z,70.83
2022-10-29T01:06:31.014Z,70.85
2022-10-29T01:08:32.825Z,70.72
2022-10-29T01:10:56.685Z,70.13
2022-10-29T01:13:01.710Z,71.15
2022-10-29T01:15:28.241Z,71.01
2022-10-29T01:17:39.720Z,70.62
2022-10-29T01:19:53.581Z,70.85
2022-10-29T01:21:58.213Z,71.06
2022-10-29T01:24:25.316Z,71.34
2022-10-29T01:27:04.415Z,71.56
2022-10-29T01:29:40.191Z,71.35
2022-10-29T01:32:02.247Z,71.70
2022-10-29T01:34:13.325Z,71.32
2022-10-29T01:36:28.143Z,71.05
2022-10-29T01:38:43.727Z,70.43
2022-10-29T01:41:06.198Z,70.55
2022-10-29T01:43:14.109Z,70.25
2022-10-29T01:45:41.737Z,70.14
2022-10-29T01:47:54.797Z,69.96
2022-10-29T01:50:02.338Z,69.65
2022-10-29T01:52:07.374Z,69.63
2022-10-29T01:54:11.514Z,69.39
2022-10-29T01:56:13.680Z,69.17
2022-10-29T02:00:57.369Z,68.52
2022-10-29T02:03:44.115Z,68.14
2022-10-29T02:06:14.734Z,68.59
2022-10-29T02:08:37.278Z,68.19
2022-10-29T02:10:48.487Z,67.71
2022-10-29T02:12:53.700Z,67.50
2022-10-29T02:15:04.606Z,67.11
2022-10-29T02:17:07.485Z,67.20
2022-10-29T02:19:09.372Z,67.07
2022-10-29T02:21:15.169Z,66.83
2022-10-29T02:23:17.501Z,66.78
2022-10-29T02:25:19.509Z,66.50
2022-10-29T02:27:22.408Z,66.58
2022-10-29T02:29:24.406Z,66.68
2022-10-29T02:31:26.197Z,66.98
2022-10-29T02:33:28.392Z,67.20
2022-10-29T02:35:30.225Z,67.04
2022-10-29T02:37:32.069Z,66.91
2022-10-29T02:39:34.429Z,67.04
2022-10-29T02:41:36.342Z,66.67
2022-10-29T02:43:38.116Z,66.56
2022-10-29T02:45:40.313Z,66.68
2022-10-29T02:47:42.182Z,66.54
2022-10-29T02:49:44.002Z,66.68
2022-10-29T02:51:46.341Z,66.52
2022-10-29T02:53:48.127Z,66.58
2022-10-29T02:55:50.116Z,66.11
2022-10-29T02:57:52.285Z,66.16
2022-10-29T02:59:54.091Z,65.90
2022-10-29T03:01:56.050Z,66.04
2022-10-29T03:03:58.615Z,65.79
2022-10-29T03:06:00.544Z,65.73
2022-10-29T03:08:02.376Z,65.56
2022-10-29T03:10:05.647Z,65.47
2022-10-29T03:12:08.066Z,65.96
2022-10-29T03:14:09.937Z,65.75
2022-10-29T03:16:12.303Z,65.71
2022-10-29T03:18:14.274Z,65.61
2022-10-29T03:20:16.298Z,65.70
2022-10-29T03:22:18.423Z,65.42
2022-10-29T03:24:20.237Z,65.17
2022-10-29T03:26:22.081Z,64.69
2022-10-29T03:28:25.541Z,64.76
2022-10-29T03:30:27.630Z,64.48
2022-10-29T03:32:29.421Z,64.19
2022-10-29T03:34:31.575Z,64.25
2022-10-29T03:36:33.456Z,63.34
2022-10-29T03:38:35.465Z,63.41
2022-10-29T03:40:37.562Z,63.25
2022-10-29T03:42:39.507Z,63.40
2022-10-29T03:44:41.289Z,62.95
2022-10-29T03:46:43.408Z,63.25
2022-10-29T03:48:45.413Z,62.71
2022-10-29T03:51:01.641Z,62.85
2022-10-29T03:53:03.781Z,62.88
2022-10-29T03:55:06.270Z,62.43
2022-10-29T03:57:08.303Z,62.47
2022-10-29T04:01:32.301Z,62.23
2022-10-29T04:03:35.950Z,62.17
2022-10-29T04:05:38.127Z,62.06
2022-10-29T04:07:39.926Z,62.23
2022-10-29T04:09:42.079Z,61.81
2022-10-29T04:11:44.222Z,62.21
2022-10-29T04:13:46.296Z,62.21
2022-10-29T04:15:48.117Z,62.34
2022-10-29T04:17:51.477Z,61.86
2022-10-29T04:19:53.166Z,61.56
2022-10-29T04:29:04.518Z,62.06
2022-10-29T04:31:09.828Z,61.46
2022-10-29T04:33:12.036Z,61.37
2022-10-29T04:35:13.873Z,61.31
2022-10-29T04:37:15.991Z,61.67
2022-10-29T04:39:20.968Z,60.86
2022-10-29T04:41:25.446Z,60.90
2022-10-29T04:43:28.921Z,60.65
2022-10-29T04:45:30.948Z,60.49
2022-10-29T04:47:33.120Z,60.55
2022-10-29T04:49:35.253Z,60.62
2022-10-29T04:51:37.167Z,60.47
2022-10-29T04:53:40.055Z,60.65
2022-10-29T04:55:43.679Z,60.57
2022-10-29T04:57:51.789Z,60.29
2022-10-29T04:59:53.591Z,59.97
2022-10-29T05:01:55.787Z,60.41
2022-10-29T05:04:00.068Z,59.81
2022-10-29T05:06:04.033Z,60.15
2022-10-29T05:08:06.791Z,59.88
2022-10-29T05:10:08.950Z,59.82
2022-10-29T05:12:10.726Z,60.24
2022-10-29T05:14:13.022Z,60.08
2022-10-29T05:16:14.786Z,59.69
2022-10-29T05:18:16.683Z,59.50
2022-10-29T05:20:18.832Z,59.37
2022-10-29T05:22:20.840Z,59.29
2022-10-29T05:24:22.667Z,59.51
2022-10-29T05:26:24.855Z,59.54
2022-10-29T05:28:26.697Z,59.63
2022-10-29T05:30:28.537Z,59.67
2022-10-29T05:32:30.668Z,59.21
2022-10-29T05:34:32.461Z,59.45
2022-10-29T05:36:34.827Z,59.27
2022-10-29T05:38:37.370Z,58.49
2022-10-29T05:40:40.382Z,59.26
2022-10-29T05:42:47.134Z,59.10
2022-10-29T05:44:49.665Z,59.12
2022-10-29T05:46:51.459Z,59.50
2022-10-29T05:48:53.517Z,59.15
2022-10-29T05:50:58.221Z,59.36
2022-10-29T05:53:06.133Z,59.49
2022-10-29T05:55:08.659Z,59.23
2022-10-29T05:57:10.740Z,59.06
2022-10-29T05:59:12.670Z,59.02
2022-10-29T06:01:14.893Z,58.97
2022-10-29T06:03:22.130Z,59.30
2022-10-29T06:05:24.834Z,59.44
2022-10-29T06:07:26.858Z,59.47
2022-10-29T06:09:29.010Z,59.66
2022-10-29T06:11:30.984Z,59.64
2022-10-29T06:13:33.153Z,59.71
2022-10-29T06:15:35.444Z,59.63
2022-10-29T06:17:47.161Z,59.95
2022-10-29T06:19:49.223Z,59.21
2022-10-29T06:21:52.519Z,58.72
2022-10-29T06:23:56.015Z,58.79
2022-10-29T06:26:01.887Z,58.60
2022-10-29T06:28:06.650Z,58.72
2022-10-29T06:30:09.184Z,59.10
2022-10-29T06:32:11.041Z,58.78
2022-10-29T06:34:14.794Z,58.05
2022-10-29T06:36:17.590Z,58.52
2022-10-29T06:38:19.363Z,58.15
2022-10-29T06:40:21.651Z,57.24
2022-10-29T06:42:23.507Z,56.12
2022-10-29T06:44:25.390Z,55.43
2022-10-29T06:46:27.596Z,53.55
2022-10-29T06:48:29.468Z,52.10
2022-10-29T06:50:31.720Z,52.24
2022-10-29T06:52:34.517Z,50.37
2022-10-29T06:54:36.352Z,49.48
2022-10-29T06:56:38.143Z,48.68
2022-10-29T06:58:40.396Z,47.70
2022-10-29T07:00:43.166Z,46.81
2022-10-29T07:02:45.021Z,46.42
2022-10-29T07:04:47.199Z,46.20
2022-10-29T07:06:49.034Z,45.38
2022-10-29T07:08:50.885Z,44.33
2022-10-29T07:10:54.236Z,44.00
2022-10-29T07:12:56.524Z,43.96
2022-10-29T07:14:58.318Z,43.28
2022-10-29T07:17:00.638Z,43.53
2022-10-29T07:19:03.951Z,42.48
2022-10-29T07:21:06.029Z,42.37
2022-10-29T07:23:08.524Z,41.85
2022-10-29T07:25:10.365Z,41.45
2022-10-29T07:27:12.338Z,40.94
2022-10-29T07:29:14.638Z,40.23
2022-10-29T07:31:16.430Z,40.84
2022-10-29T07:33:19.083Z,41.10
2022-10-29T07:35:21.322Z,40.71
2022-10-29T07:37:23.430Z,41.43
2022-10-29T07:39:25.273Z,40.29
2022-10-29T07:41:27.585Z,39.71
2022-10-29T07:43:29.370Z,40.89
2022-10-29T07:45:31.482Z,39.30
2022-10-29T07:47:34.027Z,40.35
2022-10-29T07:49:35.972Z,40.69
2022-10-29T07:51:37.891Z,39.80
2022-10-29T07:53:40.030Z,40.10
2022-10-29T07:55:41.886Z,40.22
2022-10-29T07:57:43.752Z,40.94
2022-10-29T07:59:47.074Z,40.95
2022-10-29T08:01:49.098Z,41.41
2022-10-29T08:03:51.417Z,40.19
2022-10-29T08:05:57.253Z,41.24
2022-10-29T08:07:59.946Z,41.70
2022-10-29T08:10:02.058Z,41.74
2022-10-29T08:12:07.171Z,40.83
2022-10-29T08:14:09.073Z,42.06
2022-10-29T08:16:10.863Z,42.66
2022-10-29T08:18:17.946Z,42.42
2022-10-29T08:20:21.197Z,42.58
2022-10-29T08:22:23.062Z,42.71
2022-10-29T08:24:25.431Z,42.39
2022-10-29T08:26:27.241Z,43.10
2022-10-29T08:28:30.507Z,43.71
2022-10-29T08:30:35.519Z,44.04
2022-10-29T08:32:45.431Z,43.77
2022-10-29T08:34:47.259Z,44.59
2022-10-29T08:36:49.492Z,45.45
2022-10-29T08:38:51.454Z,46.10
2022-10-29T08:41:23.806Z,46.50
2022-10-29T08:43:34.940Z,47.23
2022-10-29T08:45:46.164Z,47.97
2022-10-29T08:48:27.885Z,48.61
2022-10-29T08:50:41.694Z,47.25
2022-10-29T08:52:53.303Z,46.74
2022-10-29T08:55:15.598Z,46.20
2022-10-29T08:57:22.306Z,45.91
2022-10-29T08:59:26.219Z,45.84
2022-10-29T09:01:28.326Z,46.67
2022-10-29T09:03:30.651Z,47.01
2022-10-29T09:06:08.764Z,46.65
2022-10-29T09:08:10.613Z,48.46
2022-10-29T09:10:33.419Z,49.25
2022-10-29T09:13:12.255Z,49.58
2022-10-29T09:15:45.814Z,50.88
2022-10-29T09:18:11.734Z,51.61
2022-10-29T09:20:33.178Z,50.34
2022-10-29T09:22:47.707Z,50.19
2022-10-29T09:25:13.943Z,50.82
2022-10-29T09:27:29.520Z,51.17
2022-10-29T09:30:05.698Z,51.74
2022-10-29T09:32:16.760Z,52.33
2022-10-29T09:34:38.335Z,52.06
2022-10-29T09:36:43.887Z,52.38
2022-10-29T09:38:58.725Z,52.25
2022-10-29T09:41:03.634Z,52.49
2022-10-29T09:43:27.360Z,52.86
2022-10-29T09:45:35.262Z,52.77
2022-10-29T09:47:46.316Z,52.84
2022-10-29T09:50:45.973Z,53.13
2022-10-29T09:52:49.036Z,53.55
2022-10-29T09:54:52.700Z,54.24
2022-10-29T09:56:56.512Z,54.98
2022-10-29T09:59:27.671Z,55.02
2022-10-29T10:01:29.950Z,56.77
2022-10-29T10:03:42.894Z,56.69
2022-10-29T10:06:04.292Z,56.07
2022-10-29T10:08:14.720Z,55.33
2022-10-29T10:10:22.411Z,55.51
2022-10-29T10:12:28.324Z,55.35
2022-10-29T10:14:31.409Z,54.92
2022-10-29T10:16:33.606Z,56.45
2022-10-29T10:21:07.780Z,56.52
2022-10-29T10:23:29.255Z,56.49
2022-10-29T10:25:37.540Z,55.36
2022-10-29T10:27:41.055Z,56.67
2022-10-29T10:29:42.848Z,56.99
2022-10-29T10:31:49.622Z,55.96
2022-10-29T10:33:54.578Z,55.97
2022-10-29T10:36:02.608Z,57.83
2022-10-29T10:38:12.711Z,58.16
2022-10-29T10:40:24.720Z,58.13
2022-10-29T10:42:28.633Z,58.98
2022-10-29T10:44:31.143Z,59.91
2022-10-29T10:46:40.520Z,59.88
2022-10-29T10:48:42.547Z,59.56
2022-10-29T10:50:44.387Z,60.02
2022-10-29T10:52:47.358Z,58.37
2022-10-29T10:55:00.546Z,58.04
2022-10-29T10:57:18.687Z,58.06
2022-10-29T10:59:21.541Z,58.69
2022-10-29T11:01:45.322Z,57.26
2022-10-29T11:03:54.891Z,57.45
2022-10-29T11:06:07.330Z,55.71
2022-10-29T11:08:17.539Z,55.96
2022-10-29T11:10:24.673Z,53.81
2022-10-29T11:12:29.863Z,57.69
2022-10-29T11:14:36.812Z,54.61
2022-10-29T11:16:49.084Z,56.56
2022-10-29T11:19:13.000Z,56.25
2022-10-29T11:21:35.480Z,56.91
2022-10-29T11:23:46.473Z,56.50
2022-10-29T11:26:00.266Z,56.60
2022-10-29T11:28:29.700Z,56.76
2022-10-29T11:30:39.117Z,57.45
2022-10-29T11:35:44.101Z,58.85
2022-10-29T11:37:56.855Z,57.94
2022-10-29T11:40:04.357Z,57.86
2022-10-29T11:42:09.921Z,57.63
2022-10-29T11:44:14.298Z,56.71
2022-10-29T11:46:44.509Z,58.51
2022-10-29T11:49:09.405Z,57.18
2022-10-29T11:51:20.216Z,57.82
2022-10-29T11:53:58.372Z,58.03
2022-10-29T11:56:39.779Z,58.10
2022-10-29T11:59:14.175Z,58.43
2022-10-29T12:01:16.098Z,58.38
2022-10-29T12:03:32.655Z,58.10
2022-10-29T12:05:40.844Z,57.68
2022-10-29T12:07:51.871Z,58.19
2022-10-29T12:10:31.450Z,58.12
2022-10-29T12:12:39.525Z,57.63
2022-10-29T12:14:46.816Z,57.50
2022-10-29T12:17:07.539Z,56.95
2022-10-29T12:19:48.674Z,56.23
2022-10-29T12:22:11.406Z,56.81
2022-10-29T12:24:44.050Z,57.63
2022-10-29T12:27:04.867Z,57.49
2022-10-29T12:29:26.623Z,58.10
2022-10-29T12:31:36.457Z,57.24
2022-10-29T12:34:01.404Z,57.51
2022-10-29T12:36:06.427Z,58.09
2022-10-29T12:38:26.340Z,58.10
2022-10-29T12:40:34.860Z,58.76
2022-10-29T12:42:36.831Z,58.56
2022-10-29T12:44:48.018Z,57.57
2022-10-29T12:46:58.387Z,58.21
2022-10-29T12:49:18.235Z,58.12
2022-10-29T12:51:41.215Z,58.58
2022-10-29T12:54:04.260Z,58.67
2022-10-29T12:56:07.651Z,58.83
2022-10-29T12:58:44.968Z,59.01
2022-10-29T13:00:47.802Z,58.93
2022-10-29T13:02:51.748Z,59.67
2022-10-29T13:05:05.910Z,59.64
2022-10-29T13:09:47.287Z,58.41
2022-10-29T13:12:01.323Z,57.57
2022-10-29T13:14:03.599Z,57.12
2022-10-29T13:16:14.927Z,56.16
2022-10-29T13:18:38.964Z,56.68
2022-10-29T13:20:48.621Z,55.99
2022-10-29T13:22:56.328Z,55.49
2022-10-29T13:25:41.666Z,55.95
2022-10-29T13:27:43.726Z,55.86
2022-10-29T13:29:49.254Z,55.78
2022-10-29T13:31:53.180Z,55.76
2022-10-29T13:33:55.722Z,55.78
2022-10-29T13:36:16.871Z,55.89
2022-10-29T13:38:19.943Z,56.36
2022-10-29T13:40:31.179Z,54.95
2022-10-29T13:42:33.602Z,55.35
2022-10-29T13:44:38.359Z,54.99
2022-10-29T13:47:04.059Z,55.35
2022-10-29T13:49:13.391Z,55.29
2022-10-29T13:51:21.125Z,55.44
2022-10-29T13:53:34.437Z,56.04
2022-10-29T13:55:36.648Z,56.45
2022-10-29T13:57:57.600Z,55.98
2022-10-29T14:00:15.804Z,55.99
2022-10-29T14:02:30.233Z,56.38
2022-10-29T14:04:39.254Z,56.22
2022-10-29T14:06:41.915Z,56.90
2022-10-29T14:08:55.779Z,57.06
2022-10-29T14:10:59.610Z,57.01
2022-10-29T14:13:07.845Z,57.46
2022-10-29T14:15:13.452Z,57.09
2022-10-29T14:17:18.924Z,56.70
2022-10-29T14:19:21.888Z,56.69
2022-10-29T14:21:29.637Z,56.65
2022-10-29T14:23:33.286Z,57.19
2022-10-29T14:25:36.308Z,57.34
2022-10-29T14:27:38.265Z,57.67
2022-10-29T14:29:40.465Z,57.80
2022-10-29T14:31:42.532Z,58.27
2022-10-29T14:33:46.350Z,58.27
2022-10-29T14:35:49.028Z,58.94
2022-10-29T14:37:51.785Z,58.85
2022-10-29T14:39:59.081Z,59.11
2022-10-29T14:42:02.843Z,59.56
2022-10-29T14:44:16.205Z,59.21
2022-10-29T14:46:23.865Z,59.38
2022-10-29T14:48:26.114Z,59.59
2022-10-29T14:50:31.584Z,59.67
2022-10-29T14:52:38.614Z,60.85
2022-10-29T14:54:41.790Z,61.16
2022-10-29T14:56:48.059Z,61.73
2022-10-29T14:58:49.968Z,61.97
2022-10-29T15:00:57.162Z,62.26
2022-10-29T15:02:59.755Z,62.73
2022-10-29T15:05:07.316Z,62.17
2022-10-29T15:07:27.290Z,62.51
2022-10-29T15:09:29.368Z,62.76
2022-10-29T15:11:39.197Z,63.17
2022-10-29T15:13:41.346Z,63.63
2022-10-29T15:15:53.563Z,63.66
2022-10-29T15:18:16.066Z,64.21
2022-10-29T15:20:25.404Z,64.45
2022-10-29T15:22:38.107Z,64.79
2022-10-29T15:24:47.989Z,64.95
2022-10-29T15:27:00.362Z,65.33
2022-10-29T15:29:10.940Z,65.91
2022-10-29T15:31:46.567Z,66.39
2022-10-29T15:33:53.880Z,67.11
2022-10-29T15:36:01.783Z,67.37
2022-10-29T15:38:04.137Z,67.95
2022-10-29T15:40:18.022Z,68.61
2022-10-29T15:42:22.472Z,68.80
2022-10-29T15:44:35.422Z,68.77
2022-10-29T15:46:51.180Z,68.30
2022-10-29T15:48:53.912Z,68.32
2022-10-29T15:50:57.703Z,68.50
2022-10-29T15:53:05.918Z,69.00
2022-10-29T15:55:26.224Z,69.31
2022-10-29T15:57:28.800Z,69.01
2022-10-29T15:59:31.256Z,69.36
2022-10-29T16:01:33.251Z,69.57
2022-10-29T16:03:39.384Z,69.62
2022-10-29T16:05:44.851Z,70.90
2022-10-29T16:07:48.232Z,70.13
2022-10-29T16:09:53.913Z,70.10
2022-10-29T16:11:56.238Z,70.12
2022-10-29T16:13:59.160Z,70.88
2022-10-29T16:16:00.891Z,70.21
2022-10-29T16:18:03.105Z,70.29
2022-10-29T16:20:05.720Z,70.83
2022-10-29T16:22:16.853Z,70.63
2022-10-29T16:24:19.090Z,71.05
2022-10-29T16:26:25.698Z,71.46
2022-10-29T16:28:27.668Z,71.37
2022-10-29T16:30:30.026Z,71.38
2022-10-29T16:32:33.271Z,71.29
2022-10-29T16:34:35.176Z,71.37
2022-10-29T16:36:37.285Z,71.75
2022-10-29T16:38:39.335Z,71.71
2022-10-29T16:40:42.741Z,71.93
2022-10-29T16:42:45.233Z,72.29
2022-10-29T16:44:47.121Z,71.74
2022-10-29T16:46:49.050Z,72.18
2022-10-29T16:48:51.270Z,72.30
2022-10-29T16:50:53.105Z,72.87
2022-10-29T16:52:59.988Z,72.88
2022-10-29T16:55:02.428Z,72.99
2022-10-29T16:57:04.382Z,73.61
2022-10-29T16:59:06.240Z,74.17
2022-10-29T17:01:10.800Z,75.23
2022-10-29T17:03:15.155Z,75.53
2022-10-29T17:05:17.184Z,75.45
2022-10-29T17:07:19.437Z,75.94
2022-10-29T17:09:25.570Z,75.95
2022-10-29T17:11:27.564Z,75.86
2022-10-29T17:13:29.864Z,75.78
2022-10-29T17:15:31.770Z,76.00
2022-10-29T17:17:33.626Z,75.87
2022-10-29T17:19:35.824Z,76.13
2022-10-29T17:21:37.702Z,75.53
2022-10-29T17:23:39.663Z,75.74
2022-10-29T17:25:41.936Z,76.06
2022-10-29T17:27:43.778Z,75.94
2022-10-29T17:29:45.648Z,75.79
2022-10-29T17:31:49.007Z,76.05
2022-10-29T17:33:50.944Z,76.36
2022-10-29T17:36:07.651Z,76.00
2022-10-29T17:38:10.343Z,75.81
2022-10-29T17:40:12.388Z,75.48
2022-10-29T17:42:14.198Z,75.64
2022-10-29T17:44:16.809Z,75.31
2022-10-29T17:46:18.717Z,75.36
2022-10-29T17:48:24.042Z,75.03
2022-10-29T17:50:27.548Z,74.47
2022-10-29T17:52:29.496Z,74.28
2022-10-29T17:54:33.924Z,74.19
2022-10-29T17:56:37.994Z,74.38
2022-10-29T17:58:39.926Z,73.98
2022-10-29T18:00:41.782Z,74.40
2022-10-29T18:02:44.426Z,74.39
2022-10-29T18:04:46.383Z,74.26
2022-10-29T18:06:48.312Z,74.52
2022-10-29T18:08:50.553Z,74.55
2022-10-29T18:10:53.697Z,74.29
2022-10-29T18:12:55.594Z,74.27
2022-10-29T18:14:58.191Z,74.06
2022-10-29T18:17:01.130Z,73.94
2022-10-29T18:19:03.937Z,74.16
2022-10-29T18:21:07.408Z,74.32
2022-10-29T18:23:09.306Z,74.20
2022-10-29T18:25:12.034Z,74.08
2022-10-29T18:27:14.267Z,74.11
2022-10-29T18:29:16.199Z,74.46
2022-10-29T18:31:18.819Z,74.80
2022-10-29T18:33:21.343Z,74.29
2022-10-29T18:35:23.493Z,74.31
2022-10-29T18:37:25.300Z,74.53
2022-10-29T18:39:27.488Z,75.15
2022-10-29T18:41:29.622Z,75.41
2022-10-29T18:43:33.168Z,75.73
2022-10-29T18:45:36.474Z,75.89
2022-10-29T18:47:38.267Z,76.12
2022-10-29T18:49:41.102Z,76.47
2022-10-29T18:51:43.264Z,76.39
2022-10-29T18:53:46.041Z,76.50
2022-10-29T18:55:54.350Z,76.61
2022-10-29T18:57:56.579Z,77.19
2022-10-29T18:59:58.440Z,77.07
2022-10-29T19:02:00.360Z,77.13
2022-10-29T19:04:05.568Z,77.20
2022-10-29T19:06:13.008Z,77.58
2022-10-29T19:08:15.006Z,77.85
2022-10-29T19:10:17.220Z,78.33
2022-10-29T19:12:19.157Z,78.50
2022-10-29T19:14:20.957Z,78.50
2022-10-29T19:16:24.062Z,78.85
2022-10-29T19:18:25.923Z,78.84
2022-10-29T19:20:29.161Z,79.04
2022-10-29T19:22:31.582Z,78.68
2022-10-29T19:24:33.486Z,79.07
2022-10-29T19:26:36.004Z,79.64
2022-10-29T19:28:39.366Z,79.38
2022-10-29T19:30:41.634Z,78.99
2022-10-29T19:32:43.830Z,78.77
2022-10-29T19:34:46.371Z,78.64
2022-10-29T19:36:48.163Z,79.12
2022-10-29T19:38:50.231Z,79.61
2022-10-29T19:40:52.636Z,79.20
2022-10-29T19:42:55.518Z,79.15
2022-10-29T19:44:57.304Z,79.08
2022-10-29T19:46:59.548Z,79.11
2022-10-29T19:49:01.464Z,79.13
2022-10-29T19:51:03.770Z,79.27
2022-10-29T19:53:06.332Z,79.29
2022-10-29T19:55:09.324Z,79.41
2022-10-29T19:57:11.294Z,79.67
2022-10-29T19:59:13.491Z,79.75
2022-10-29T20:01:17.032Z,79.84
2022-10-29T20:03:19.502Z,79.42
2022-10-29T20:05:21.798Z,79.43
2022-10-29T20:07:23.751Z,79.83
2022-10-29T20:09:25.666Z,80.40
2022-10-29T20:11:27.828Z,81.52
2022-10-29T20:13:29.692Z,81.87
2022-10-29T20:15:32.073Z,81.91
2022-10-29T20:17:36.103Z,83.82
2022-10-29T20:19:38.050Z,83.28
2022-10-29T20:21:40.229Z,83.50
2022-10-29T20:23:44.954Z,84.33
2022-10-29T20:25:46.845Z,81.51
2022-10-29T20:27:48.755Z,81.49
2022-10-29T20:29:50.993Z,82.54
2022-10-29T20:31:52.938Z,82.40
2022-10-29T20:33:59.971Z,83.37
2022-10-29T20:36:02.198Z,84.02
2022-10-29T20:38:04.770Z,84.15
2022-10-29T20:40:07.166Z,82.86
2022-10-29T20:42:09.355Z,83.54
2022-10-29T20:44:11.202Z,83.28
2022-10-29T20:46:13.090Z,83.96
2022-10-29T20:48:15.386Z,84.25
2022-10-29T20:50:17.342Z,84.34
2022-10-29T20:52:20.428Z,83.07
2022-10-29T20:54:22.970Z,83.52
2022-10-29T20:56:27.283Z,83.79
2022-10-29T20:58:29.702Z,84.17
2022-10-29T21:00:31.906Z,83.77
2022-10-29T21:02:33.819Z,83.53
2022-10-29T21:04:35.639Z,83.31
2022-10-29T21:06:37.879Z,83.25
2022-10-29T21:08:40.275Z,83.67
2022-10-29T21:10:42.187Z,83.94
2022-10-29T21:12:44.329Z,83.50
2022-10-29T21:14:46.370Z,84.04
2022-10-29T21:16:48.237Z,83.91
2022-10-29T21:18:56.202Z,83.77
2022-10-29T21:21:03.329Z,84.17
2022-10-29T21:23:05.355Z,84.08
2022-10-29T21:25:07.886Z,84.28
2022-10-29T21:27:10.036Z,84.62
2022-10-29T21:29:11.924Z,85.27
2022-10-29T21:31:14.210Z,85.90
2022-10-29T21:33:16.125Z,85.95
2022-10-29T21:35:18.100Z,85.58
2022-10-29T21:37:20.274Z,85.66
2022-10-29T21:39:22.404Z,85.84
2022-10-29T21:41:24.202Z,86.02
2022-10-29T21:43:26.615Z,85.57
2022-10-29T21:45:28.482Z,86.14
2022-10-29T21:47:30.620Z,85.86
2022-10-29T21:49:32.893Z,85.64
2022-10-29T21:51:34.808Z,85.41
2022-10-29T21:53:37.012Z,85.93
2022-10-29T21:55:39.734Z,86.04
2022-10-29T21:57:44.934Z,86.48
2022-10-29T21:59:46.736Z,86.85
2022-10-29T22:01:49.106Z,86.76
2022-10-29T22:03:51.045Z,87.53
2022-10-29T22:05:53.041Z,87.21
2022-10-29T22:07:57.762Z,87.77
2022-10-29T22:09:59.911Z,88.79
2022-10-29T22:12:01.747Z,88.61
2022-10-29T22:14:03.920Z,89.07
2022-10-29T22:16:07.687Z,88.94
2022-10-29T22:18:09.545Z,88.89
2022-10-29T22:20:12.187Z,88.61
2022-10-29T22:22:14.004Z,88.24
2022-10-29T22:24:16.106Z,88.52
2022-10-29T22:26:20.555Z,88.06
2022-10-29T22:28:22.331Z,88.08
2022-10-29T22:30:24.184Z,88.25
2022-10-29T22:32:26.403Z,88.00
2022-10-29T22:34:28.202Z,88.43
2022-10-29T22:36:31.934Z,88.24
2022-10-29T22:38:34.256Z,88.27
2022-10-29T22:40:40.923Z,88.47
2022-10-29T22:42:42.769Z,88.24
2022-10-29T22:44:44.929Z,88.33
2022-10-29T22:46:46.975Z,88.49
2022-10-29T22:48:49.752Z,88.12
2022-10-29T22:51:09.869Z,86.97
2022-10-29T22:53:12.047Z,86.70
2022-10-29T22:55:14.013Z,86.35
2022-10-29T22:57:16.161Z,87.18
2022-10-29T22:59:18.019Z,86.41
2022-10-29T23:01:25.430Z,87.34
2022-10-29T23:03:27.725Z,87.47
2022-10-29T23:05:29.527Z,87.48
2022-10-29T23:09:34.485Z,88.53
2022-10-29T23:11:39.175Z,89.17
2022-10-29T23:13:41.135Z,89.53
2022-10-29T23:15:47.571Z,89.20
2022-10-29T23:17:53.417Z,89.57
2022-10-29T23:19:56.347Z,88.70
2022-10-29T23:21:58.502Z,88.65
2022-10-29T23:24:00.481Z,88.45
2022-10-29T23:26:04.111Z,88.56
2022-10-29T23:28:06.389Z,89.28
2022-10-29T23:30:09.027Z,88.76
2022-10-29T23:32:10.934Z,88.96
2022-10-29T23:34:13.126Z,88.76
2022-10-29T23:36:16.236Z,88.63
2022-10-29T23:38:18.097Z,88.96
2022-10-29T23:40:20.290Z,89.35
2022-10-29T23:42:22.130Z,88.51
2022-10-29T23:44:24.036Z,88.97
2022-10-29T23:46:26.235Z,88.83
2022-10-29T23:48:28.692Z,89.13
2022-10-29T23:50:30.645Z,89.32
2022-10-29T23:52:32.773Z,89.27
2022-10-29T23:54:34.574Z,89.41
2022-10-29T23:56:36.557Z,88.77
2022-10-29T23:58:38.707Z,87.79
